Time;durP1;ratioP1;P1;durP2;ratioP2;P2;SDS_P1;SDS_P2;PMS_P1;PMS_P2;Temp;Humidity;BMP_temperature;BMP_pressure;BME280_temperature;BME280_humidity;BME280_pressure;Samples;Min_cycle;Max_cycle;Signal;HPM_P1;HPM_P2
2023/03/01 00:09:40;;;;;;;18.50;10.17;;;;;;;2.34;100.00;100944.91;31350074;28;20061;-74
2023/03/01 00:24:42;;;;;;;25.40;11.03;;;;;;;2.07;100.00;100924.28;31356708;28;20056;-73
2023/03/01 00:39:43;;;;;;;21.73;11.83;;;;;;;1.95;100.00;100935.78;31349564;28;20103;-73
2023/03/01 00:54:46;;;;;;;22.33;10.27;;;;;;;1.99;100.00;100914.47;31338569;28;20372;-73
2023/03/01 01:09:48;;;;;;;28.10;12.90;;;;;;;2.14;100.00;100894.19;31347259;28;20563;-80
2023/03/01 01:24:50;;;;;;;25.53;12.33;;;;;;;2.03;100.00;100915.34;31363199;28;20076;-81
2023/03/01 01:39:52;;;;;;;22.00;11.40;;;;;;;1.65;100.00;100897.06;31344918;28;20107;-80
2023/03/01 01:55:00;;;;;;;28.17;13.97;;;;;;;1.37;100.00;100875.59;31395080;28;20072;-81
2023/03/01 02:10:02;;;;;;;26.03;13.33;;;;;;;1.20;100.00;100868.59;31359774;28;20060;-80
2023/03/01 02:25:19;;;;;;;22.00;12.47;;;;;;;1.46;100.00;100854.84;31352849;28;20379;-72
2023/03/01 02:40:21;;;;;;;21.27;11.23;;;;;;;1.60;100.00;100857.94;31389330;28;20040;-81
2023/03/01 02:55:24;;;;;;;18.33;11.17;;;;;;;1.52;100.00;100837.44;31363249;28;20053;-74
2023/03/01 03:10:32;;;;;;;20.40;10.97;;;;;;;1.43;100.00;100834.09;31368510;28;20112;-74
2023/03/01 03:25:37;;;;;;;27.40;11.23;;;;;;;1.25;100.00;100830.91;31365413;28;20052;-75
2023/03/01 03:40:41;;;;;;;30.07;13.77;;;;;;;1.11;100.00;100827.06;31343757;28;20387;-73
2023/03/01 03:55:44;;;;;;;25.10;11.97;;;;;;;1.07;100.00;100818.13;31357163;28;20061;-73
2023/03/01 04:10:48;;;;;;;24.83;11.63;;;;;;;1.09;100.00;100797.19;31356467;28;20049;-74
2023/03/01 04:25:58;;;;;;;19.03;9.67;;;;;;;1.06;100.00;100787.16;31353180;28;20045;-82
2023/03/01 04:41:00;;;;;;;20.20;10.60;;;;;;;0.84;100.00;100735.75;31365080;28;20075;-81
2023/03/01 04:56:03;;;;;;;18.80;9.13;;;;;;;0.96;100.00;100730.34;31358516;28;20318;-81
2023/03/01 05:11:05;;;;;;;16.70;10.20;;;;;;;1.37;100.00;100747.19;31365009;28;20049;-82
2023/03/01 05:26:08;;;;;;;16.43;8.87;;;;;;;2.26;100.00;100702.03;31362691;28;20114;-82
2023/03/01 05:41:27;;;;;;;22.27;9.97;;;;;;;3.09;100.00;100713.41;31360510;28;20111;-83
2023/03/01 05:56:37;;;;;;;18.60;9.43;;;;;;;3.96;100.00;100691.25;31364877;28;20044;-82
2023/03/01 06:11:44;;;;;;;16.40;8.63;;;;;;;5.62;100.00;100701.91;31373715;28;20045;-83
2023/03/01 06:26:46;;;;;;;17.93;9.33;;;;;;;6.93;100.00;100718.31;31315605;28;20118;-83
2023/03/01 06:41:48;;;;;;;16.03;8.60;;;;;;;7.91;94.17;100727.09;31370064;28;20053;-83
2023/03/01 06:56:54;;;;;;;17.60;8.10;;;;;;;8.39;91.64;100708.59;31386885;28;20061;-84
2023/03/01 07:11:59;;;;;;;21.43;7.53;;;;;;;9.71;79.33;100708.84;31448075;28;20077;-83
2023/03/01 07:27:01;;;;;;;13.83;8.23;;;;;;;10.19;74.42;100711.63;31397303;28;20136;-84
2023/03/01 07:42:03;;;;;;;17.23;8.13;;;;;;;10.79;73.73;100699.41;31385701;28;20126;-83
2023/03/01 07:57:05;;;;;;;14.93;7.93;;;;;;;11.87;67.67;100695.66;31371835;28;20068;-84
2023/03/01 08:12:07;;;;;;;12.30;6.50;;;;;;;12.50;59.79;100693.06;31362705;28;20053;-81
2023/03/01 08:27:13;;;;;;;12.43;6.73;;;;;;;13.22;54.22;100676.88;31372878;28;20083;-74
2023/03/01 08:42:14;;;;;;;;;;;;;;;13.64;51.29;100663.50;31339434;28;20053;-72
2023/03/01 08:57:17;;;;;;;10.90;6.07;;;;;;;13.89;49.22;100630.91;31327122;28;19974;-71
2023/03/01 09:12:18;;;;;;;11.10;6.30;;;;;;;14.27;46.51;100617.44;31352441;28;20045;-83
2023/03/01 09:27:20;;;;;;;12.97;6.37;;;;;;;15.15;41.91;100607.94;31358610;28;20079;-78
2023/03/01 09:42:22;;;;;;;11.97;5.73;;;;;;;15.83;39.58;100590.16;31354984;28;20099;-74
2023/03/01 09:57:45;;;;;;;10.90;5.20;;;;;;;16.20;37.92;100563.09;31354202;28;20060;-79
2023/03/01 10:12:47;;;;;;;8.37;4.80;;;;;;;15.09;39.56;100544.06;31348122;28;20056;-73
2023/03/01 10:27:53;;;;;;;9.70;4.53;;;;;;;15.34;41.17;100511.22;31349788;28;20103;-73
2023/03/01 10:42:58;;;;;;;7.23;4.30;;;;;;;16.23;40.47;100480.03;31338277;28;20057;-75
2023/03/01 10:58:20;;;;;;;6.97;4.37;;;;;;;16.21;40.97;100471.50;31349313;28;20103;-73
2023/03/01 11:13:21;;;;;;;6.87;3.83;;;;;;;16.10;42.13;100449.19;31364004;28;20072;-75
2023/03/01 11:28:26;;;;;;;7.17;3.50;;;;;;;16.17;42.48;100440.72;31354432;28;20486;-74
2023/03/01 11:43:46;;;;;;;6.35;3.30;;;;;;;16.54;43.37;100455.34;31363966;28;20049;-73
2023/03/01 11:58:58;;;;;;;23.20;4.47;;;;;;;17.80;43.49;100441.59;31350190;28;20722;-74
2023/03/01 12:14:17;;;;;;;5.73;3.37;;;;;;;17.67;42.85;100439.03;31334484;28;20036;-75
2023/03/01 12:29:49;;;;;;;6.23;3.83;;;;;;;14.97;51.89;100427.28;31349786;28;20115;-74
2023/03/01 12:44:57;;;;;;;5.97;3.80;;;;;;;12.98;69.58;100439.09;31339409;28;20103;-74
2023/03/01 13:00:04;;;;;;;9.67;5.17;;;;;;;12.31;80.70;100446.06;31347313;28;20388;-74
2023/03/01 13:15:34;;;;;;;10.77;4.47;;;;;;;11.30;94.86;100461.97;31351157;28;20490;-74
2023/03/01 13:30:39;;;;;;;8.43;3.60;;;;;;;10.63;100.00;100452.91;31345524;28;20435;-73
2023/03/01 13:45:42;;;;;;;5.93;3.70;;;;;;;10.09;100.00;100473.75;31327051;28;20049;-74
2023/03/01 14:00:45;;;;;;;7.03;3.80;;;;;;;9.54;100.00;100482.84;31346554;28;20076;-79
2023/03/01 14:16:09;;;;;;;9.37;4.37;;;;;;;9.22;100.00;100494.72;31353731;28;20067;-78
2023/03/01 14:31:35;;;;;;;8.03;4.37;;;;;;;9.24;100.00;100507.88;31354473;28;20406;-80
2023/03/01 14:46:55;;;;;;;8.63;4.67;;;;;;;8.76;100.00;100524.81;31350844;28;20049;-76
2023/03/01 15:01:59;;;;;;;11.52;5.28;;;;;;;8.34;100.00;100541.25;31362135;28;20099;-74
2023/03/01 15:17:01;;;;;;;16.37;7.07;;;;;;;8.18;100.00;100549.78;31372688;28;20053;-80
2023/03/01 15:32:09;;;;;;;12.17;7.20;;;;;;;7.68;100.00;100568.78;31381396;28;20041;-80
2023/03/01 15:47:30;;;;;;;15.37;6.93;;;;;;;7.36;100.00;100600.41;31354272;28;20131;-73
2023/03/01 16:02:32;;;;;;;14.97;7.60;;;;;;;7.12;100.00;100608.06;31351152;28;20509;-72
2023/03/01 16:17:34;;;;;;;15.03;8.00;;;;;;;7.16;100.00;100627.00;31355712;28;20051;-78
2023/03/01 16:32:44;;;;;;;14.77;8.17;;;;;;;6.97;100.00;100632.72;31367434;28;20554;-75
2023/03/01 16:47:46;;;;;;;18.70;8.50;;;;;;;6.93;100.00;100637.31;31363903;28;20053;-76
2023/03/01 17:02:48;;;;;;;19.70;9.07;;;;;;;6.87;100.00;100636.91;31341268;28;20045;-81
2023/03/01 17:17:50;;;;;;;23.73;10.43;;;;;;;6.76;100.00;100639.59;31347833;28;20049;-75
2023/03/01 17:32:54;;;;;;;23.63;9.80;;;;;;;6.62;100.00;100655.69;31350875;28;20041;-74
2023/03/01 17:47:56;;;;;;;17.23;8.87;;;;;;;6.60;100.00;100649.94;31348469;28;20052;-75
2023/03/01 18:02:59;;;;;;;22.43;10.13;;;;;;;6.66;100.00;100644.91;31333326;28;20472;-73
2023/03/01 18:18:00;;;;;;;18.57;8.40;;;;;;;6.74;100.00;100665.41;31347413;28;20057;-73
2023/03/01 18:33:02;;;;;;;18.63;8.13;;;;;;;6.72;100.00;100683.88;31327301;28;20044;-73
2023/03/01 18:48:04;;;;;;;18.67;8.20;;;;;;;6.63;100.00;100703.09;31386156;28;20053;-74
2023/03/01 19:03:06;;;;;;;14.43;7.93;;;;;;;6.49;100.00;100708.41;31350096;28;20061;-73
2023/03/01 19:18:08;;;;;;;15.17;7.73;;;;;;;6.34;100.00;100720.25;31365818;28;20505;-78
2023/03/01 19:33:10;;;;;;;15.57;7.13;;;;;;;6.25;100.00;100701.69;31342472;28;20171;-72
2023/03/01 19:48:12;;;;;;;16.20;7.90;;;;;;;6.39;100.00;100698.31;31313333;28;20403;-72
2023/03/01 20:03:14;;;;;;;21.00;8.20;;;;;;;6.29;100.00;100699.03;31302974;28;20924;-72
2023/03/01 20:18:16;;;;;;;17.77;7.30;;;;;;;6.26;100.00;100692.47;31326841;28;20064;-76
2023/03/01 20:33:18;;;;;;;14.87;8.10;;;;;;;5.92;100.00;100691.03;31332211;28;20076;-75
2023/03/01 20:48:19;;;;;;;16.83;7.50;;;;;;;5.87;100.00;100689.44;31343842;28;20061;-76
2023/03/01 21:03:22;;;;;;;15.93;7.80;;;;;;;5.80;100.00;100698.22;31330241;28;20122;-77
2023/03/01 21:18:28;;;;;;;16.07;7.70;;;;;;;5.74;100.00;100701.63;31341128;28;20479;-77
2023/03/01 21:33:31;;;;;;;16.00;8.10;;;;;;;5.37;100.00;100702.41;31339322;28;20045;-76
2023/03/01 21:48:33;;;;;;;15.37;7.90;;;;;;;5.33;100.00;100700.81;31351112;28;20056;-75
2023/03/01 22:03:43;;;;;;;17.10;8.10;;;;;;;5.30;100.00;100709.63;31382450;28;20423;-79
2023/03/01 22:18:46;;;;;;;15.97;8.33;;;;;;;5.55;100.00;100707.19;31372430;28;20048;-79
2023/03/01 22:33:48;;;;;;;18.07;8.13;;;;;;;5.38;100.00;100703.19;31338433;28;20041;-79
2023/03/01 22:48:50;;;;;;;15.43;7.20;;;;;;;5.16;100.00;100696.00;31365297;28;20486;-79
2023/03/01 23:03:52;;;;;;;18.60;9.27;;;;;;;5.31;100.00;100706.56;31345619;28;20041;-78
2023/03/01 23:18:57;;;;;;;20.03;9.10;;;;;;;5.23;100.00;100706.84;31353970;28;20053;-80
2023/03/01 23:34:00;;;;;;;17.77;7.90;;;;;;;5.13;100.00;100692.91;31362802;28;20053;-78
2023/03/01 23:49:03;;;;;;;18.87;9.20;;;;;;;5.03;100.00;100677.41;31368927;28;20078;-79
